Buckland Airport
PABL : now visible

Aeroporto :











RITROVATECI SU...

 
LOGIN :

Iscrizione | Disclaimer

   EN    FR    IT 

 









Sommario :    VFR   VFR Marginale   IFR   IFR Intensivo   IFR Molto Intensivo
Visibilità : 
Base nubi : 
>= 8 km
>= 3000ft
5 / 8 km
1000 / 3000 ft
1500m / 5 km
500 / 1000 ft
800 / 1500m
200 / 500 ft
< 800m
< 200 ft
Simboli :   Temporali  Nebbia  Neve Forte  Precipitazioni Forti  Vento > 20 kt






- Altitudine del aeroporto : 31 ft
- Codice IATA : BVK


PABL - Buckland

ULTIMO METAR :
  • 072156Z AUTO 00000KT 10SM OVC030 M16/M19 A3009 RMK AO2 SNB11E26 SLP191 P0000 T11561189 FZRANO

METARs OBSOLETI :
  • 072056Z AUTO 00000KT 10SM OVC030 M17/M20 A3009 RMK AO2 SNE45 SLP193 P0000 60000 T11671200 51002 FZRANO
  • 071956Z AUTO 00000KT 9SM -SN BKN028 M18/M21 A3009 RMK AO2 SNB16 SLP191 P0000 T11831211 FZRANO
  • 071953Z AUTO 00000KT 9SM -SN BKN028 M18/M21 A3009 RMK AO2 SNB16 P0000 FZRANO

TAF N/A



MetMap, La meteo Aeronautica in un colpo d'occhio ! - Copyright ORBIFLY Dicembre 2007 - Disclaimer

ORBIFLY MET'MAP TEAM :

Programmazione e sviluppo : Alexandra Zaïnal
Concezione : Baudouin d'Aumeries
Aiuto per la programmazione : Marc-Olivier Méhu
Supporto tecnico e logistico : Manuel Goepfert
Aiuto per la traduzione : Arnaldo La Scala

Contatto : metmap@orbifly.com




FONTI E CREDITI :

   NOAA       Earth
Advisory